Time;durP1;ratioP1;P1;durP2;ratioP2;P2;SDS_P1;SDS_P2;PMS_P1;PMS_P2;Temp;Humidity;BMP_temperature;BMP_pressure;BME280_temperature;BME280_humidity;BME280_pressure;Samples;Min_cycle;Max_cycle;Signal;HPM_P1;HPM_P2
2022/07/04 00:00:00;;;;;;;63.75;60.45;;;;;;;22.05;56.79;96885.19;5073893;28;20223;-61
2022/07/04 00:02:26;;;;;;;238.55;226.68;;;;;;;21.92;57.53;96877.91;5073480;28;20205;-61
2022/07/04 00:04:52;;;;;;;452.23;428.17;;;;;;;21.93;57.02;96872.28;5073574;28;20165;-61
2022/07/04 00:07:18;;;;;;;505.88;478.02;;;;;;;22.00;57.56;96868.47;5072701;28;20219;-59
2022/07/04 00:09:43;;;;;;;351.15;332.58;;;;;;;21.65;58.38;96868.03;5073485;28;20173;-61
2022/07/04 00:12:09;;;;;;;88.40;83.72;;;;;;;21.50;58.81;96861.09;5073200;28;20673;-61
2022/07/04 00:14:34;;;;;;;98.43;93.20;;;;;;;21.66;58.40;96863.47;5073356;28;20169;-61
2022/07/04 00:17:00;;;;;;;224.07;212.95;;;;;;;21.81;58.26;96852.50;5073656;28;20162;-61
2022/07/04 00:19:25;;;;;;;254.85;241.98;;;;;;;21.60;58.85;96846.00;5073349;28;20181;-62
2022/07/04 00:21:51;;;;;;;223.15;211.73;;;;;;;21.50;59.46;96854.97;5073194;28;20248;-61
2022/07/04 00:24:16;;;;;;;103.32;97.72;;;;;;;21.28;60.17;96860.97;5054864;28;20227;-61
2022/07/04 00:26:42;;;;;;;145.60;138.23;;;;;;;21.31;59.95;96838.22;5072680;28;20208;-59
2022/07/04 00:29:08;;;;;;;218.52;207.90;;;;;;;21.30;59.97;96852.66;5072875;28;20181;-61
2022/07/04 00:31:33;;;;;;;245.50;233.60;;;;;;;21.30;60.31;96837.44;5073046;28;20555;-61
2022/07/04 00:33:59;;;;;;;210.07;199.48;;;;;;;21.37;59.58;96842.41;5072094;28;20203;-60
2022/07/04 00:36:24;;;;;;;232.02;220.68;;;;;;;21.35;60.09;96845.34;5072739;28;20561;-61
2022/07/04 00:38:50;;;;;;;209.52;198.90;;;;;;;21.27;60.15;96846.03;5070588;28;20225;-61
2022/07/04 00:41:15;;;;;;;191.80;182.15;;;;;;;21.32;59.99;96853.94;5072752;28;20655;-61
2022/07/04 00:43:41;;;;;;;187.32;178.25;;;;;;;21.26;60.52;96857.00;5073234;28;20575;-61
2022/07/04 00:46:06;;;;;;;150.20;142.73;;;;;;;21.04;61.04;96854.94;5072972;28;20201;-60
2022/07/04 00:48:32;;;;;;;109.00;103.40;;;;;;;21.07;61.04;96860.47;5073900;28;20671;-61
2022/07/04 00:50:58;;;;;;;112.20;106.50;;;;;;;21.08;60.93;96853.25;5074214;28;20224;-62
2022/07/04 00:53:24;;;;;;;140.88;133.63;;;;;;;21.00;61.02;96865.38;5072761;28;20652;-62
2022/07/04 00:55:50;;;;;;;211.32;200.65;;;;;;;20.90;61.55;96867.44;5072299;28;20249;-61
2022/07/04 00:58:19;;;;;;;295.60;280.45;;;;;;;20.79;61.90;96866.75;5072229;28;20180;-61
2022/07/04 01:00:44;;;;;;;314.52;298.40;;;;;;;20.84;61.61;96857.94;5072707;28;20196;-61
2022/07/04 01:03:10;;;;;;;338.30;320.67;;;;;;;20.99;61.35;96861.13;5072466;28;20162;-63
2022/07/04 01:05:36;;;;;;;276.90;262.75;;;;;;;20.98;61.45;96864.09;5071998;28;20201;-62
2022/07/04 01:08:03;;;;;;;248.30;235.60;;;;;;;20.82;61.52;96868.06;5071646;28;20204;-63
2022/07/04 01:10:28;;;;;;;211.07;200.35;;;;;;;20.72;62.03;96858.38;5072260;28;20630;-59
2022/07/04 01:12:54;;;;;;;165.00;156.52;;;;;;;20.74;62.05;96858.84;5054230;28;20197;-62
2022/07/04 01:15:20;;;;;;;146.55;138.93;;;;;;;20.71;62.19;96864.75;5072046;28;20211;-59
2022/07/04 01:17:45;;;;;;;106.72;101.05;;;;;;;20.71;62.02;96862.09;5072532;28;20201;-60
2022/07/04 01:20:14;;;;;;;106.78;101.10;;;;;;;20.63;62.33;96862.75;5072058;28;20173;-60
2022/07/04 01:22:40;;;;;;;139.52;132.25;;;;;;;20.51;62.70;96857.06;5054027;28;20642;-59
2022/07/04 01:25:07;;;;;;;283.02;268.42;;;;;;;20.56;62.68;96863.09;5071540;28;20717;-60
2022/07/04 01:27:33;;;;;;;317.45;301.20;;;;;;;20.35;62.95;96864.47;5053710;28;20236;-59
2022/07/04 01:29:58;;;;;;;420.10;398.17;;;;;;;20.55;62.55;96871.41;5071129;28;20214;-61
2022/07/04 01:32:24;;;;;;;443.13;419.88;;;;;;;20.54;62.61;96862.63;5071906;28;20201;-61
2022/07/04 01:34:49;;;;;;;437.23;414.20;;;;;;;20.27;63.42;96870.41;5071402;28;20177;-62
2022/07/04 01:37:15;;;;;;;390.70;369.88;;;;;;;20.36;63.29;96870.59;5071849;28;20181;-61
2022/07/04 01:39:40;;;;;;;336.00;318.27;;;;;;;20.50;62.89;96871.47;5069556;28;20229;-60
2022/07/04 01:42:06;;;;;;;312.02;295.80;;;;;;;20.56;62.47;96868.41;5071979;28;20331;-60
2022/07/04 01:44:32;;;;;;;270.63;256.67;;;;;;;20.49;63.17;96870.69;5071721;28;20176;-60
2022/07/04 01:46:57;;;;;;;197.32;187.13;;;;;;;20.34;63.64;96866.31;5071839;28;20528;-60
2022/07/04 01:49:23;;;;;;;142.48;135.18;;;;;;;20.36;63.85;96865.25;5071515;28;20161;-60
2022/07/04 01:51:49;;;;;;;91.25;86.63;;;;;;;20.17;64.36;96873.97;5053891;28;20237;-61
2022/07/04 01:54:15;;;;;;;67.88;64.40;;;;;;;20.22;64.28;96873.13;5071835;28;20157;-59
2022/07/04 01:56:41;;;;;;;59.03;55.90;;;;;;;20.30;64.14;96878.59;5070937;28;20657;-60
2022/07/04 01:59:07;;;;;;;55.28;52.35;;;;;;;20.37;64.01;96878.28;5071300;28;20188;-60
2022/07/04 02:01:33;;;;;;;49.42;46.72;;;;;;;20.26;64.47;96882.13;5071547;28;20268;-58
2022/07/04 02:04:04;;;;;;;47.45;44.97;;;;;;;20.37;64.11;96880.94;5071900;28;20237;-59
2022/07/04 02:06:30;;;;;;;39.13;36.85;;;;;;;20.26;64.24;96887.44;5071373;28;20188;-60
2022/07/04 02:14:25;;;;;;;35.33;33.50;;;;;;;20.26;64.62;96892.78;5051895;28;20191;-61
2022/07/04 02:16:51;;;;;;;47.30;44.40;;;;;;;20.29;64.38;96898.31;5051704;28;20158;-61
2022/07/04 02:19:16;;;;;;;56.13;53.10;;;;;;;20.20;64.80;96894.72;5051856;28;20177;-61
2022/07/04 02:21:42;;;;;;;80.70;76.47;;;;;;;19.95;65.78;96897.66;5070888;28;20681;-60
2022/07/04 02:24:08;;;;;;;90.35;85.60;;;;;;;20.11;65.08;96885.00;5071129;28;20252;-60
2022/07/04 02:26:33;;;;;;;91.65;86.82;;;;;;;20.14;65.10;96903.03;5070947;28;20557;-60
2022/07/04 02:28:59;;;;;;;94.45;89.20;;;;;;;20.11;65.26;96898.28;5071419;28;20287;-58
2022/07/04 02:31:25;;;;;;;85.55;80.93;;;;;;;20.12;65.37;96903.31;5071084;28;20228;-60
2022/07/04 02:33:51;;;;;;;85.82;81.13;;;;;;;19.97;65.78;96906.16;5071716;28;20506;-60
2022/07/04 02:36:16;;;;;;;64.88;61.38;;;;;;;19.91;66.44;96905.41;5071382;28;20268;-60
2022/07/04 02:38:42;;;;;;;67.63;63.95;;;;;;;19.67;66.73;96911.81;5068868;28;20229;-61
2022/07/04 02:41:07;;;;;;;58.92;55.78;;;;;;;19.66;66.85;96913.69;5071335;28;20217;-60
2022/07/04 02:43:33;;;;;;;39.13;36.92;;;;;;;19.69;66.95;96923.75;5071396;28;20218;-60
2022/07/04 02:45:58;;;;;;;45.35;42.88;;;;;;;19.86;66.42;96921.44;5073220;28;20197;-59
2022/07/04 02:48:24;;;;;;;52.88;50.00;;;;;;;19.55;67.05;96920.16;5074876;28;20250;-61
2022/07/04 02:50:49;;;;;;;158.15;150.15;;;;;;;19.60;67.10;96924.63;5074445;28;20232;-60
2022/07/04 02:53:14;;;;;;;181.82;172.60;;;;;;;19.47;67.56;96926.88;5074611;28;20157;-60
2022/07/04 02:55:40;;;;;;;210.88;200.10;;;;;;;19.39;67.96;96924.78;5075081;28;20162;-61
2022/07/04 02:58:05;;;;;;;213.30;202.55;;;;;;;19.40;67.79;96922.91;5074362;28;20199;-60
2022/07/04 03:00:31;;;;;;;215.50;204.10;;;;;;;19.54;67.40;96934.53;5074004;28;20165;-60
2022/07/04 03:02:56;;;;;;;180.00;170.68;;;;;;;19.50;67.50;96930.84;5075116;28;20630;-60
2022/07/04 03:05:22;;;;;;;165.18;156.35;;;;;;;19.48;67.53;96944.41;5073648;28;20467;-61
2022/07/04 03:07:47;;;;;;;168.15;158.90;;;;;;;19.54;67.34;96945.16;5055538;28;20181;-62
2022/07/04 03:10:13;;;;;;;164.15;155.23;;;;;;;19.35;67.98;96934.38;5074501;28;20256;-60
2022/07/04 03:12:39;;;;;;;200.70;190.23;;;;;;;19.20;68.52;96937.16;5056322;28;20177;-60
2022/07/04 03:15:05;;;;;;;202.07;191.55;;;;;;;19.19;68.62;96940.91;5074193;28;20169;-62
2022/07/04 03:17:30;;;;;;;163.98;155.40;;;;;;;19.31;68.21;96948.50;5074322;28;20644;-61
2022/07/04 03:19:59;;;;;;;143.85;136.70;;;;;;;19.25;68.32;96942.44;5074472;28;20181;-62
2022/07/04 03:22:25;;;;;;;89.35;84.47;;;;;;;19.01;69.62;96938.88;5074212;28;20193;-61
2022/07/04 03:24:50;;;;;;;51.40;48.58;;;;;;;18.99;69.66;96949.00;5073797;28;20199;-60
2022/07/04 03:27:16;;;;;;;58.60;55.38;;;;;;;19.00;69.38;96947.97;5073973;28;20310;-60
2022/07/04 03:29:41;;;;;;;102.80;97.50;;;;;;;19.09;69.54;96943.63;5074247;28;20277;-61
2022/07/04 03:32:07;;;;;;;125.57;119.13;;;;;;;19.05;69.56;96950.56;5073726;28;20279;-60
2022/07/04 03:34:33;;;;;;;131.38;124.70;;;;;;;19.08;69.58;96953.47;5056009;28;20178;-61
2022/07/04 03:36:58;;;;;;;128.55;121.90;;;;;;;19.23;69.03;96954.41;5073399;28;20173;-60
2022/07/04 03:39:24;;;;;;;112.93;107.13;;;;;;;19.14;69.35;96956.88;5072013;28;20228;-60
2022/07/04 03:41:49;;;;;;;121.53;115.07;;;;;;;19.16;69.34;96956.59;5074027;28;20197;-60
2022/07/04 03:44:15;;;;;;;122.07;115.70;;;;;;;19.15;69.44;96958.47;5073923;28;20500;-61
2022/07/04 03:46:40;;;;;;;120.22;113.72;;;;;;;19.17;69.44;96955.53;5073584;28;20193;-60
2022/07/04 03:49:06;;;;;;;121.03;114.57;;;;;;;19.09;69.76;96965.69;5073547;28;20177;-62
2022/07/04 03:51:31;;;;;;;119.72;113.57;;;;;;;18.97;69.96;96962.56;5073598;28;20617;-61
2022/07/04 03:53:57;;;;;;;82.13;77.65;;;;;;;18.84;70.68;96962.38;5073510;28;20162;-61
2022/07/04 03:56:22;;;;;;;76.65;71.68;;;;;;;18.86;70.59;96962.91;5073409;28;20157;-60
2022/07/04 03:58:48;;;;;;;56.63;53.40;;;;;;;18.83;70.74;96968.78;5071591;28;20174;-61
2022/07/04 04:01:18;;;;;;;79.43;75.07;;;;;;;18.95;70.58;96969.22;5073718;28;20571;-61
2022/07/04 04:06:29;;;;;;;138.93;131.32;;;;;;;19.09;69.84;96973.66;5073845;28;20636;-62
2022/07/04 04:08:55;;;;;;;130.52;123.22;;;;;;;19.10;69.85;96971.78;5073391;28;20185;-61
2022/07/04 04:11:21;;;;;;;110.13;103.82;;;;;;;18.91;70.27;96976.16;5073679;28;20258;-61
2022/07/04 04:13:46;;;;;;;117.82;111.15;;;;;;;18.84;70.79;96979.09;5073337;28;20252;-61
2022/07/04 04:16:11;;;;;;;133.98;126.35;;;;;;;19.02;70.10;96988.31;5073272;28;20158;-61
2022/07/04 04:18:37;;;;;;;156.02;147.32;;;;;;;19.09;69.92;96988.81;5073828;28;20193;-62
2022/07/04 04:21:03;;;;;;;122.20;115.60;;;;;;;19.09;69.77;96994.91;5073097;28;20205;-61
2022/07/04 04:23:29;;;;;;;127.00;119.93;;;;;;;19.32;68.98;97000.59;5073211;28;20161;-61
2022/07/04 04:25:54;;;;;;;103.38;97.57;;;;;;;19.35;68.88;97008.81;5073252;28;20204;-61
2022/07/04 04:28:20;;;;;;;105.10;99.35;;;;;;;19.36;68.83;97006.94;5072943;28;20188;-61
2022/07/04 04:30:45;;;;;;;132.73;125.75;;;;;;;19.39;68.01;97009.84;5072770;28;20201;-62
2022/07/04 04:33:10;;;;;;;149.00;141.45;;;;;;;19.16;69.51;97020.38;5072797;28;20248;-61
2022/07/04 04:35:36;;;;;;;132.48;125.63;;;;;;;19.21;69.07;97023.00;5072989;28;20264;-62
2022/07/04 04:38:01;;;;;;;121.18;114.50;;;;;;;19.37;68.44;97024.50;5070208;28;20227;-60
2022/07/04 04:40:27;;;;;;;56.47;53.53;;;;;;;19.32;68.78;97021.88;5072818;28;20166;-60
2022/07/04 04:42:52;;;;;;;31.30;29.50;;;;;;;19.21;68.73;97031.78;5072669;28;20168;-61
2022/07/04 04:45:18;;;;;;;34.53;32.40;;;;;;;19.32;68.05;97035.16;5072415;28;20164;-62
2022/07/04 04:47:43;;;;;;;40.08;37.92;;;;;;;19.33;68.42;97026.94;5072635;28;20161;-62
2022/07/04 04:50:14;;;;;;;56.50;53.42;;;;;;;19.54;67.01;97035.56;5072851;28;20520;-61
2022/07/04 04:52:43;;;;;;;72.95;68.90;;;;;;;19.57;67.09;97039.53;5071816;28;20622;-59
2022/07/04 04:55:09;;;;;;;88.68;83.85;;;;;;;19.73;66.58;97041.00;5054632;28;20177;-60
2022/07/04 04:57:35;;;;;;;166.52;157.82;;;;;;;19.92;65.81;97042.72;5072077;28;20218;-60
2022/07/04 05:00:00;;;;;;;200.95;190.68;;;;;;;19.94;65.93;97037.13;5072576;28;20248;-60
2022/07/04 05:02:26;;;;;;;213.60;202.80;;;;;;;20.11;65.22;97039.34;5071866;28;20677;-61
2022/07/04 05:04:52;;;;;;;210.65;200.32;;;;;;;19.98;65.87;97047.97;5072284;28;20157;-60
2022/07/04 05:07:18;;;;;;;125.70;118.97;;;;;;;19.99;65.14;97053.03;5071867;28;20689;-60
2022/07/04 05:09:43;;;;;;;103.63;98.32;;;;;;;20.18;64.72;97043.25;5053493;28;20192;-60
2022/07/04 05:12:09;;;;;;;78.95;74.60;;;;;;;20.40;64.25;97039.34;5072309;28;20211;-60
2022/07/04 05:14:34;;;;;;;63.63;60.25;;;;;;;20.04;65.08;97046.88;5072375;28;20582;-60
2022/07/04 05:17:01;;;;;;;57.28;54.10;;;;;;;20.05;65.67;97051.91;5072099;28;20173;-60
2022/07/04 05:19:26;;;;;;;79.80;75.40;;;;;;;19.92;65.52;97040.03;5071960;28;20191;-59
2022/07/04 05:21:52;;;;;;;45.47;43.00;;;;;;;20.16;65.31;97042.75;5072388;28;20205;-59
2022/07/04 05:24:17;;;;;;;49.58;46.65;;;;;;;19.94;65.72;97037.13;5071717;28;20176;-59
2022/07/04 05:26:42;;;;;;;62.95;59.67;;;;;;;20.04;65.51;97039.69;5071651;28;20756;-59
2022/07/04 05:29:08;;;;;;;82.95;78.35;;;;;;;20.12;65.04;97039.06;5053853;28;20177;-59
2022/07/04 05:31:34;;;;;;;129.20;122.63;;;;;;;20.08;64.67;97037.25;5072211;28;20510;-59
2022/07/04 05:33:59;;;;;;;124.80;118.40;;;;;;;19.98;65.07;97037.34;5071817;28;20231;-59
2022/07/04 05:36:26;;;;;;;72.43;68.57;;;;;;;19.68;66.43;97036.50;5071920;28;20653;-59
2022/07/04 05:38:52;;;;;;;52.88;50.17;;;;;;;20.11;65.11;97036.69;5069859;28;20229;-58
2022/07/04 05:41:17;;;;;;;129.93;123.03;;;;;;;19.90;65.36;97042.19;5071218;28;20633;-58
2022/07/04 05:43:43;;;;;;;143.43;135.55;;;;;;;20.43;63.99;97033.47;5071881;28;20193;-57
2022/07/04 05:46:09;;;;;;;101.47;95.97;;;;;;;20.86;62.62;97031.59;5071936;28;20661;-58
2022/07/04 05:48:34;;;;;;;68.13;64.47;;;;;;;20.30;64.11;97038.34;5071937;28;20169;-59
2022/07/04 05:51:00;;;;;;;55.58;52.63;;;;;;;20.99;62.22;97046.91;5071259;28;20674;-59
2022/07/04 05:53:25;;;;;;;78.15;74.07;;;;;;;20.66;63.04;97044.13;5071736;28;20164;-59
2022/07/04 05:55:51;;;;;;;87.53;82.95;;;;;;;21.09;61.73;97038.78;5071836;28;20240;-57
2022/07/04 05:58:16;;;;;;;84.97;80.55;;;;;;;20.99;62.33;97034.38;5071538;28;20161;-57
2022/07/04 06:00:42;;;;;;;75.00;71.03;;;;;;;21.26;61.39;97031.09;5071398;28;20250;-58
2022/07/04 06:03:08;;;;;;;101.88;96.78;;;;;;;21.31;61.02;97028.34;5053660;28;20173;-58
2022/07/04 06:05:33;;;;;;;199.63;189.55;;;;;;;21.31;60.30;97023.03;5071327;28;20231;-58
2022/07/04 06:07:59;;;;;;;150.30;142.75;;;;;;;21.33;61.31;97025.41;5071733;28;20162;-61
2022/07/04 06:10:25;;;;;;;229.88;218.07;;;;;;;21.41;61.54;97032.75;5071818;28;20181;-57
2022/07/04 06:12:52;;;;;;;243.15;231.05;;;;;;;21.60;61.17;97032.72;5071498;28;20713;-58
2022/07/04 06:15:18;;;;;;;206.80;196.07;;;;;;;21.84;59.54;97026.22;5071690;28;20158;-57
2022/07/04 06:17:43;;;;;;;83.75;79.40;;;;;;;21.70;58.62;97028.03;5071579;28;20158;-60
2022/07/04 06:20:10;;;;;;;75.22;71.13;;;;;;;21.29;60.59;97030.50;5071621;28;20275;-61
2022/07/04 06:22:47;;;;;;;87.22;82.80;;;;;;;20.38;63.45;97033.50;5074475;28;20304;-61
2022/07/04 06:25:19;;;;;;;119.13;113.20;;;;;;;21.12;61.80;97033.66;5074785;28;20189;-61
2022/07/04 06:27:47;;;;;;;107.43;101.78;;;;;;;21.05;60.93;97030.56;5075538;28;20207;-60
2022/07/04 06:30:13;;;;;;;87.07;82.53;;;;;;;21.35;60.31;97039.22;5075184;28;20177;-61
2022/07/04 06:32:43;;;;;;;77.60;72.85;;;;;;;21.01;61.22;97042.09;5074438;28;20196;-60
2022/07/04 06:37:53;;;;;;;129.32;122.88;;;;;;;21.37;61.20;97048.53;5072758;28;20716;-65
2022/07/04 06:40:18;;;;;;;137.45;130.70;;;;;;;21.02;61.99;97049.78;5077237;28;20178;-64
2022/07/04 06:42:44;;;;;;;95.68;90.85;;;;;;;21.09;61.40;97052.09;5095765;28;20649;-64
2022/07/04 06:45:10;;;;;;;87.55;82.95;;;;;;;21.15;60.35;97053.66;5086817;28;20599;-63
2022/07/04 06:47:35;;;;;;;86.18;81.53;;;;;;;20.70;61.70;97054.97;5075042;28;20229;-65
2022/07/04 06:50:01;;;;;;;90.45;85.68;;;;;;;21.99;58.66;97062.53;5075227;28;20575;-63
2022/07/04 06:52:26;;;;;;;75.55;71.32;;;;;;;22.29;57.41;97053.22;5074628;28;20654;-64
2022/07/04 06:54:52;;;;;;;96.72;91.72;;;;;;;22.28;57.47;97052.44;5073688;28;20173;-64
2022/07/04 06:57:17;;;;;;;285.83;269.58;;;;;;;21.85;58.11;97057.13;5072643;28;20322;-63
2022/07/04 06:59:43;;;;;;;220.20;208.88;;;;;;;22.58;56.20;97050.25;5074728;28;20629;-64
2022/07/04 07:02:08;;;;;;;135.18;128.23;;;;;;;22.34;56.50;97047.78;5074169;28;20215;-63
2022/07/04 07:04:34;;;;;;;143.82;136.40;;;;;;;22.13;58.19;97046.53;5073428;28;20527;-64
2022/07/04 07:06:59;;;;;;;230.90;218.65;;;;;;;22.61;57.18;97036.31;5073156;28;20288;-63
2022/07/04 07:09:25;;;;;;;389.88;369.05;;;;;;;22.03;57.69;97041.38;5073660;28;20272;-64
2022/07/04 07:11:50;;;;;;;333.48;315.63;;;;;;;22.71;56.18;97030.78;5074123;28;20269;-64
2022/07/04 07:14:16;;;;;;;313.70;297.02;;;;;;;22.84;55.65;97030.00;5074012;28;20537;-63
2022/07/04 07:16:41;;;;;;;267.63;253.70;;;;;;;21.49;59.87;97038.22;5072672;28;20631;-64
2022/07/04 07:19:07;;;;;;;358.55;339.55;;;;;;;21.30;60.70;97037.44;5074146;28;20177;-63
2022/07/04 07:21:32;;;;;;;358.48;339.35;;;;;;;20.51;62.36;97036.28;5074579;28;20595;-64
2022/07/04 07:24:00;;;;;;;86.95;82.43;;;;;;;21.24;61.10;97027.91;5073880;28;20173;-63
2022/07/04 07:26:31;;;;;;;67.63;64.03;;;;;;;21.54;59.83;97029.34;5074239;28;20569;-63
2022/07/04 07:28:56;;;;;;;103.95;98.50;;;;;;;21.02;61.47;97020.47;5074195;28;20181;-64
2022/07/04 07:31:48;;;;;;;240.52;227.73;;;;;;;20.84;62.69;97013.25;5073605;28;20224;-64
2022/07/04 07:34:14;;;;;;;75.82;71.57;;;;;;;20.45;64.83;97012.69;5074245;28;20177;-64
2022/07/04 07:36:40;;;;;;;72.47;68.60;;;;;;;20.53;64.27;97018.16;5074327;28;20191;-64
2022/07/04 07:42:05;;;;;;;74.95;71.05;;;;;;;20.38;64.39;97015.66;5071479;28;20239;-64
2022/07/04 07:44:30;;;;;;;88.80;84.15;;;;;;;20.81;63.36;97013.81;5071519;28;20174;-64
2022/07/04 07:46:56;;;;;;;102.25;96.82;;;;;;;20.64;64.25;97010.84;5075870;28;20254;-64
2022/07/04 07:49:21;;;;;;;107.85;102.28;;;;;;;20.98;62.30;97014.13;5073880;28;20646;-64
2022/07/04 07:51:46;;;;;;;95.22;90.32;;;;;;;21.20;62.70;97012.78;5055409;28;20796;-65
2022/07/04 07:54:13;;;;;;;67.63;64.00;;;;;;;21.32;60.82;97013.16;5074193;28;20173;-65
2022/07/04 07:56:39;;;;;;;81.28;76.80;;;;;;;20.54;63.58;97013.63;5074067;28;20626;-64
2022/07/04 07:59:04;;;;;;;90.55;85.82;;;;;;;21.04;62.46;97017.53;5074338;28;20165;-64
2022/07/04 08:01:29;;;;;;;85.82;81.18;;;;;;;20.33;64.50;97018.41;5073228;28;20614;-62
2022/07/04 08:06:39;;;;;;;80.10;76.00;;;;;;;20.02;65.85;97020.53;5057707;28;20273;-64
2022/07/04 08:09:05;;;;;;;75.93;71.88;;;;;;;20.33;65.08;97016.53;5073519;28;20253;-64
2022/07/04 08:11:31;;;;;;;92.78;88.00;;;;;;;20.30;64.29;97010.91;5073478;28;20203;-64
2022/07/04 08:13:56;;;;;;;95.35;90.50;;;;;;;21.06;62.70;97015.38;5073195;28;20176;-64
2022/07/04 08:16:22;;;;;;;89.28;84.72;;;;;;;21.21;62.15;97011.72;5072295;28;20237;-65
2022/07/04 08:18:47;;;;;;;94.78;89.70;;;;;;;21.14;61.87;97004.88;5072946;28;20166;-64
2022/07/04 08:21:16;;;;;;;65.07;61.80;;;;;;;20.56;63.99;96996.25;5072888;28;20545;-64
2022/07/04 08:23:42;;;;;;;79.78;75.60;;;;;;;20.97;62.89;97006.41;5072713;28;20170;-64
2022/07/04 08:26:07;;;;;;;74.13;69.97;;;;;;;20.36;65.22;97001.84;5072714;28;20217;-64
2022/07/04 08:28:33;;;;;;;71.53;67.82;;;;;;;20.90;63.62;96998.75;5072378;28;20239;-65
2022/07/04 08:30:59;;;;;;;61.25;58.00;;;;;;;21.27;62.43;97005.22;5072672;28;20205;-64
2022/07/04 08:33:25;;;;;;;53.65;50.85;;;;;;;21.33;62.45;97001.41;5072543;28;20201;-64
2022/07/04 08:35:51;;;;;;;57.08;53.97;;;;;;;20.94;63.64;97007.78;5072632;28;20239;-64
2022/07/04 08:38:17;;;;;;;65.15;61.55;;;;;;;21.34;62.48;97003.78;5054400;28;20192;-65
2022/07/04 08:40:43;;;;;;;68.75;64.78;;;;;;;21.66;62.18;97005.69;5069668;28;20232;-65
2022/07/04 08:43:13;;;;;;;67.25;63.38;;;;;;;22.14;60.54;96997.41;5072220;28;20177;-64
2022/07/04 08:45:39;;;;;;;67.85;64.13;;;;;;;22.71;58.92;96990.69;5071914;28;20626;-64
2022/07/04 08:48:07;;;;;;;98.35;92.32;;;;;;;22.38;59.55;97004.16;5072489;28;20173;-64
2022/07/04 08:50:38;;;;;;;103.72;98.20;;;;;;;22.19;60.53;97005.31;5072182;28;20279;-65
2022/07/04 08:53:11;;;;;;;107.88;102.22;;;;;;;21.59;62.24;96997.25;5072058;28;20177;-65
2022/07/04 08:58:25;;;;;;;70.60;66.65;;;;;;;21.79;62.41;97010.25;5070969;28;20816;-63
2022/07/04 09:00:55;;;;;;;122.70;116.13;;;;;;;21.64;62.33;97009.72;5071609;28;20220;-64
2022/07/04 09:03:21;;;;;;;193.35;182.95;;;;;;;21.22;64.16;97013.31;5071473;28;20173;-63
2022/07/04 09:05:46;;;;;;;130.25;123.32;;;;;;;21.11;64.62;97020.63;5056916;28;20227;-64
2022/07/04 09:08:12;;;;;;;193.98;183.75;;;;;;;21.35;63.40;97018.69;5066788;28;20174;-64
2022/07/04 09:10:38;;;;;;;105.75;100.13;;;;;;;20.95;64.97;97025.38;5071905;28;20681;-63
2022/07/04 09:13:05;;;;;;;98.30;92.75;;;;;;;20.88;64.57;97035.59;5054145;28;20177;-63
2022/07/04 09:15:32;;;;;;;80.30;75.90;;;;;;;21.08;63.69;97024.66;5071331;28;20673;-63
2022/07/04 09:17:59;;;;;;;75.75;71.43;;;;;;;20.70;65.25;97023.81;5071851;28;20634;-63
2022/07/04 09:20:26;;;;;;;71.40;67.53;;;;;;;21.69;62.60;97030.97;5071767;28;20169;-63
2022/07/04 09:22:53;;;;;;;132.35;125.32;;;;;;;22.27;60.64;97036.69;5071714;28;20181;-63
2022/07/04 09:25:19;;;;;;;257.00;243.68;;;;;;;23.56;56.76;97028.16;5071523;28;20626;-64
2022/07/04 09:27:48;;;;;;;140.93;133.60;;;;;;;22.18;60.24;97030.47;5070996;28;20240;-65
2022/07/04 09:30:22;;;;;;;130.23;123.50;;;;;;;23.10;56.96;97025.69;5071503;28;20641;-63
2022/07/04 09:32:50;;;;;;;154.38;146.30;;;;;;;23.49;55.97;97029.66;5071621;28;20272;-62
2022/07/04 09:35:21;;;;;;;298.70;282.98;;;;;;;24.10;54.81;97023.63;5071884;28;20178;-64
2022/07/04 09:37:52;;;;;;;282.40;267.85;;;;;;;24.37;54.00;97025.34;5071011;28;20184;-64
2022/07/04 09:40:31;;;;;;;177.80;168.43;;;;;;;23.22;56.77;97022.50;5068710;28;20216;-63
2022/07/04 09:42:59;;;;;;;187.82;177.95;;;;;;;23.86;56.18;97034.66;5070939;28;20355;-63
2022/07/04 09:45:25;;;;;;;139.85;132.27;;;;;;;24.77;53.32;97037.63;5052785;28;20660;-63
2022/07/04 09:47:55;;;;;;;249.20;236.65;;;;;;;24.98;51.31;97037.84;5071195;28;20209;-63
2022/07/04 09:50:22;;;;;;;227.02;215.93;;;;;;;25.35;50.23;97041.88;5067911;28;20173;-64
2022/07/04 09:52:59;;;;;;;173.98;165.13;;;;;;;26.04;48.82;97034.56;5071808;28;20170;-63
2022/07/04 09:55:29;;;;;;;123.95;117.57;;;;;;;25.31;50.05;97043.59;5070740;28;20621;-63
2022/07/04 09:58:17;;;;;;;92.05;87.40;;;;;;;22.84;55.33;97039.91;5052366;28;20579;-64
2022/07/04 10:00:45;;;;;;;64.90;61.38;;;;;;;23.23;53.69;97037.47;5070852;28;20836;-64
2022/07/04 10:03:20;;;;;;;124.75;118.20;;;;;;;24.02;52.38;97035.06;5071538;28;20177;-64
2022/07/04 10:05:47;;;;;;;108.50;102.93;;;;;;;22.18;57.03;97046.47;5066552;28;20208;-63
2022/07/04 10:08:12;;;;;;;159.90;151.93;;;;;;;22.63;56.43;97034.91;5071878;28;20211;-64
2022/07/04 10:10:39;;;;;;;263.08;248.95;;;;;;;23.81;54.34;97031.31;5070880;28;20685;-64
2022/07/04 10:13:12;;;;;;;188.15;178.48;;;;;;;23.95;53.96;97040.88;5071272;28;20280;-63
2022/07/04 10:15:39;;;;;;;146.00;138.55;;;;;;;24.25;52.78;97031.28;5070587;28;20188;-63
2022/07/04 10:18:09;;;;;;;239.75;227.38;;;;;;;24.74;51.28;97032.13;5071063;28;20208;-62
2022/07/04 10:20:35;;;;;;;223.18;211.70;;;;;;;24.96;50.13;97034.72;5071115;28;20797;-63
2022/07/04 10:23:02;;;;;;;179.73;170.45;;;;;;;23.87;52.56;97040.78;5070828;28;20224;-63
2022/07/04 10:25:27;;;;;;;197.88;187.65;;;;;;;23.92;52.44;97043.34;5070475;28;20217;-59
2022/07/04 10:27:53;;;;;;;248.65;236.18;;;;;;;23.56;53.01;97044.22;5071425;28;20281;-60
2022/07/04 10:30:29;;;;;;;259.05;245.60;;;;;;;23.50;53.15;97047.31;5071381;28;20268;-59
2022/07/04 10:32:58;;;;;;;179.32;170.13;;;;;;;23.38;52.43;97034.44;5071583;28;20203;-60
2022/07/04 10:35:48;;;;;;;126.50;120.03;;;;;;;23.36;53.74;97038.50;5071651;28;20174;-60
2022/07/04 10:38:16;;;;;;;38.47;36.40;;;;;;;23.59;52.92;97037.44;5071482;28;20598;-61
2022/07/04 10:41:05;;;;;;;93.18;87.88;;;;;;;23.14;53.22;97033.91;5069078;28;20237;-58
2022/07/04 10:43:37;;;;;;;39.88;37.72;;;;;;;23.28;53.54;97032.00;5071290;28;20623;-60
2022/07/04 10:46:11;;;;;;;49.47;46.75;;;;;;;23.09;53.76;97028.66;5070819;28;20193;-60
2022/07/04 10:49:05;;;;;;;58.10;54.83;;;;;;;23.03;53.32;97022.63;5051568;28;20185;-61
2022/07/04 10:51:33;;;;;;;52.40;49.72;;;;;;;23.31;53.24;97036.72;5070042;28;20254;-60
2022/07/04 10:54:05;;;;;;;59.35;56.33;;;;;;;22.47;54.28;97030.97;5070326;28;20169;-60
2022/07/04 10:56:43;;;;;;;40.92;38.63;;;;;;;22.87;54.50;97025.94;5070693;28;20169;-60
2022/07/04 10:59:15;;;;;;;54.08;50.83;;;;;;;23.30;53.40;97031.66;5070566;28;20184;-61
2022/07/04 11:02:06;;;;;;;53.53;50.58;;;;;;;23.83;52.16;97031.81;5035631;28;20682;-60
2022/07/04 11:04:54;;;;;;;48.15;45.47;;;;;;;24.23;51.31;97027.34;5065385;28;20181;-61
2022/07/04 11:07:35;;;;;;;102.95;97.63;;;;;;;23.65;51.16;97030.09;5072659;28;20201;-60
2022/07/04 11:10:12;;;;;;;111.07;105.43;;;;;;;23.36;51.43;97027.78;5074070;28;20282;-60
2022/07/04 11:12:53;;;;;;;121.70;115.63;;;;;;;23.59;51.13;97024.06;5072808;28;20274;-61
2022/07/04 11:15:40;;;;;;;101.25;96.13;;;;;;;23.29;51.55;97032.78;5074075;28;20173;-61
2022/07/04 11:18:11;;;;;;;101.00;95.50;;;;;;;23.27;52.07;97024.25;5073879;28;20184;-59
2022/07/04 11:20:40;;;;;;;67.68;63.97;;;;;;;23.03;52.61;97017.28;5073570;28;20201;-60
2022/07/04 11:23:11;;;;;;;47.20;44.50;;;;;;;23.00;53.18;97009.09;5074254;28;20181;-60
2022/07/04 11:25:38;;;;;;;32.45;30.75;;;;;;;23.95;51.80;97003.38;5074084;28;20169;-60
2022/07/04 11:28:28;;;;;;;60.67;57.25;;;;;;;24.29;50.52;97007.34;5073940;28;20177;-61